Back to Top

Language: 

My Weather Underground Personal Weather Station Historical Data with Graphs...

Delerius Weather Station Historical Data
Daily Summary for April 8, 2017 Units:  English    Metric   Both
« Previous Day
Next Day »
Daily Weekly Monthly Yearly Custom
  High: Low: Average:
Temperature: 68.4 °F 31.8 °F 51 °F
Dew Point: 49.7 °F 30.3 °F 40.6 °F
Humidity: 97 % 41 % 71 %
Wind Speed: 10.0 mph 0.0 mph 2.4 mph
Wind Gust: 18.0 mph - -
Wind:- - South
Pressure: 30.28 in 30.11 in -
Precipitation: 0.00 in    
Historical Graphs
 
 
Tabular Data for April 8, 2017
Time Temperature Dew Point Pressure Wind Wind Speed Wind Gust Humidity Rainfall Rate (Hourly) solar Conditions
00:01 37.9 °F 34.7 °F 30.28 in Calm     88 % 0.00 in 0 W/m2
00:06 37.9 °F 35.0 °F 30.28 in Calm     89 % 0.00 in 0 W/m2
00:11 37.8 °F 34.8 °F 30.28 in Calm     89 % 0.00 in 0 W/m2
00:16 37.6 °F 34.6 °F 30.28 in Calm     89 % 0.00 in 0 W/m2
00:21 37.4 °F 34.5 °F 30.28 in Calm     89 % 0.00 in 0 W/m2
00:26 37.4 °F 34.5 °F 30.28 in Calm     89 % 0.00 in 0 W/m2
00:31 37.2 °F 34.3 °F 30.27 in Calm     89 % 0.00 in 0 W/m2
00:36 37.2 °F 34.6 °F 30.28 in Calm     90 % 0.00 in 0 W/m2
00:41 37.0 °F 34.4 °F 30.27 in Calm     90 % 0.00 in 0 W/m2
00:46 37.0 °F 34.4 °F 30.27 in Calm     90 % 0.00 in 0 W/m2
00:51 36.9 °F 34.2 °F 30.27 in Calm   1.0 mph 90 % 0.00 in 0 W/m2
00:56 36.7 °F 34.0 °F 30.27 in Calm   1.0 mph 90 % 0.00 in 0 W/m2
01:01 36.7 °F 34.0 °F 30.27 in Calm   1.0 mph 90 % 0.00 in 0 W/m2
01:06 36.7 °F 34.3 °F 30.27 in Calm     91 % 0.00 in 0 W/m2
01:11 36.7 °F 34.3 °F 30.27 in Calm     91 % 0.00 in 0 W/m2
01:16 36.5 °F 34.1 °F 30.27 in Calm     91 % 0.00 in 0 W/m2
01:21 36.3 °F 33.9 °F 30.27 in Calm     91 % 0.00 in 0 W/m2
01:26 36.3 °F 33.9 °F 30.26 in Calm     91 % 0.00 in 0 W/m2
01:31 36.1 °F 33.8 °F 30.26 in Calm     91 % 0.00 in 0 W/m2
01:36 36.0 °F 33.6 °F 30.26 in Calm     91 % 0.00 in 0 W/m2
01:41 35.8 °F 33.4 °F 30.26 in Calm     91 % 0.00 in 0 W/m2
01:46 35.6 °F 33.2 °F 30.26 in Calm     91 % 0.00 in 0 W/m2
01:51 35.4 °F 33.1 °F 30.26 in Calm     91 % 0.00 in 0 W/m2
01:56 35.2 °F 32.9 °F 30.26 in Calm     91 % 0.00 in 0 W/m2
02:01 35.2 °F 32.9 °F 30.25 in Calm     91 % 0.00 in 0 W/m2
02:06 35.2 °F 32.9 °F 30.25 in Calm     91 % 0.00 in 0 W/m2
02:11 35.1 °F 33.0 °F 30.25 in Calm     92 % 0.00 in 0 W/m2
02:16 35.1 °F 33.0 °F 30.25 in Calm     92 % 0.00 in 0 W/m2
02:17 35.1 °F 33.0 °F 30.25 in Calm     92 % 0.00 in 0 W/m2
02:22 35.1 °F 33.0 °F 30.25 in Calm     92 % 0.00 in 0 W/m2
02:27 34.9 °F 32.8 °F 30.25 in Calm     92 % 0.00 in 0 W/m2
02:32 34.9 °F 32.8 °F 30.25 in Calm     92 % 0.00 in 0 W/m2
02:37 34.9 °F 32.8 °F 30.25 in Calm     92 % 0.00 in 0 W/m2
02:38 34.7 °F 32.6 °F 30.25 in Calm     92 % 0.00 in 0 W/m2
02:43 34.7 °F 32.6 °F 30.25 in Calm     92 % 0.00 in 0 W/m2
02:48 34.5 °F 32.4 °F 30.25 in Calm     92 % 0.00 in 0 W/m2
02:53 34.3 °F 32.3 °F 30.25 in Calm     92 % 0.00 in 0 W/m2
02:58 34.3 °F 32.3 °F 30.25 in Calm     92 % 0.00 in 0 W/m2
03:03 34.3 °F 32.3 °F 30.24 in Calm     92 % 0.00 in 0 W/m2
03:08 34.2 °F 32.1 °F 30.24 in Calm     92 % 0.00 in 0 W/m2
03:13 34.2 °F 32.1 °F 30.24 in Calm     92 % 0.00 in 0 W/m2
03:18 34.2 °F 32.3 °F 30.24 in Calm     93 % 0.00 in 0 W/m2
03:23 34.2 °F 32.3 °F 30.24 in Calm     93 % 0.00 in 0 W/m2
03:28 34.2 °F 32.3 °F 30.24 in Calm     93 % 0.00 in 0 W/m2
03:33 34.2 °F 32.3 °F 30.24 in Calm     93 % 0.00 in 0 W/m2
03:38 34.2 °F 32.3 °F 30.24 in Calm     93 % 0.00 in 0 W/m2
03:43 34.0 °F 32.2 °F 30.24 in Calm     93 % 0.00 in 0 W/m2
03:48 34.0 °F 32.2 °F 30.24 in Calm     93 % 0.00 in 0 W/m2
03:53 33.8 °F 32.0 °F 30.24 in Calm     93 % 0.00 in 0 W/m2
03:58 33.6 °F 31.8 °F 30.23 in Calm     93 % 0.00 in 0 W/m2
04:03 33.6 °F 31.8 °F 30.23 in Calm     93 % 0.00 in 0 W/m2
04:08 33.6 °F 31.8 °F 30.23 in Calm     93 % 0.00 in 0 W/m2
04:13 33.4 °F 31.6 °F 30.23 in Calm     93 % 0.00 in 0 W/m2
04:19 33.4 °F 31.6 °F 30.23 in Calm     93 % 0.00 in 0 W/m2
04:24 33.4 °F 31.6 °F 30.23 in Calm     93 % 0.00 in 0 W/m2
04:29 33.4 °F 31.6 °F 30.23 in Calm     93 % 0.00 in 0 W/m2
04:34 33.4 °F 31.6 °F 30.23 in Calm     93 % 0.00 in 0 W/m2
04:39 33.3 °F 31.5 °F 30.23 in Calm     93 % 0.00 in 0 W/m2
04:44 33.1 °F 31.3 °F 30.23 in Calm     93 % 0.00 in 0 W/m2
04:49 33.1 °F 31.3 °F 30.22 in Calm     93 % 0.00 in 0 W/m2
04:54 32.9 °F 31.1 °F 30.22 in Calm     93 % 0.00 in 0 W/m2
04:59 32.9 °F 31.1 °F 30.22 in Calm     93 % 0.00 in 0 W/m2
05:04 32.7 °F 30.9 °F 30.22 in Calm     93 % 0.00 in 0 W/m2
05:09 32.7 °F 30.9 °F 30.22 in Calm     93 % 0.00 in 0 W/m2
05:14 32.5 °F 30.7 °F 30.22 in Calm     93 % 0.00 in 0 W/m2
05:19 32.5 °F 30.7 °F 30.22 in Calm     93 % 0.00 in 0 W/m2
05:24 32.5 °F 31.0 °F 30.22 in Calm     94 % 0.00 in 0 W/m2
05:29 32.5 °F 31.0 °F 30.23 in Calm     94 % 0.00 in 0 W/m2
05:34 32.5 °F 31.0 °F 30.23 in Calm     94 % 0.00 in 0 W/m2
05:39 32.4 °F 30.8 °F 30.23 in Calm     94 % 0.00 in 0 W/m2
05:44 32.4 °F 30.8 °F 30.23 in Calm     94 % 0.00 in 0 W/m2
05:49 32.4 °F 30.8 °F 30.23 in Calm     94 % 0.00 in 0 W/m2
05:54 32.4 °F 30.8 °F 30.23 in Calm     94 % 0.00 in 0 W/m2
05:59 32.2 °F 30.6 °F 30.23 in Calm     94 % 0.00 in 0 W/m2
06:04 32.2 °F 30.6 °F 30.23 in Calm     94 % 0.00 in 0 W/m2
06:09 32.2 °F 30.6 °F 30.23 in Calm     94 % 0.00 in 0 W/m2
06:14 32.2 °F 30.6 °F 30.23 in Calm     94 % 0.00 in 0 W/m2
06:19 32.0 °F 30.5 °F 30.23 in Calm     94 % 0.00 in 0 W/m2
06:24 31.8 °F 30.3 °F 30.23 in Calm     94 % 0.00 in 5 W/m2
06:29 32.0 °F 30.5 °F 30.23 in Calm     94 % 0.00 in 7 W/m2
06:34 32.2 °F 30.6 °F 30.23 in Calm     94 % 0.00 in 9 W/m2
06:40 32.0 °F 30.5 °F 30.23 in Calm     94 % 0.00 in 12 W/m2
06:45 32.0 °F 30.5 °F 30.23 in Calm     94 % 0.00 in 16 W/m2
06:50 32.0 °F 30.5 °F 30.23 in Calm     94 % 0.00 in 19 W/m2
06:55 32.0 °F 30.5 °F 30.23 in Calm     94 % 0.00 in 23 W/m2
06:56 32.0 °F 30.5 °F 30.23 in Calm     94 % 0.00 in 23 W/m2
07:01 32.0 °F 30.7 °F 30.23 in Calm     95 % 0.00 in 35 W/m2
07:06 32.2 °F 30.9 °F 30.23 in Calm     95 % 0.00 in 35 W/m2
07:11 32.2 °F 30.9 °F 30.23 in Calm     95 % 0.00 in 33 W/m2
07:13 32.4 °F 31.1 °F 30.23 in Calm     95 % 0.00 in 33 W/m2
07:18 32.4 °F 31.1 °F 30.23 in Calm     95 % 0.00 in 37 W/m2
07:23 32.5 °F 31.3 °F 30.22 in Calm     95 % 0.00 in 40 W/m2
07:28 32.9 °F 31.6 °F 30.22 in Calm     95 % 0.00 in 44 W/m2
07:33 33.3 °F 32.2 °F 30.22 in Calm     96 % 0.00 in 47 W/m2
07:38 33.6 °F 32.3 °F 30.23 in Calm     95 % 0.00 in 54 W/m2
07:43 34.0 °F 33.0 °F 30.23 in Calm     96 % 0.00 in 63 W/m2
07:48 34.3 °F 33.3 °F 30.23 in Calm     96 % 0.00 in 54 W/m2
07:53 34.9 °F 33.9 °F 30.23 in Calm     96 % 0.00 in 56 W/m2
07:58 35.2 °F 34.2 °F 30.23 in Calm     96 % 0.00 in 174 W/m2
08:03 35.8 °F 34.8 °F 30.23 in Calm     96 % 0.00 in 190 W/m2
08:08 36.3 °F 35.3 °F 30.23 in Calm     96 % 0.00 in 206 W/m2
08:14 37.2 °F 36.4 °F 30.23 in Calm     97 % 0.00 in 216 W/m2
08:19 37.9 °F 36.9 °F 30.23 in Calm     96 % 0.00 in 232 W/m2
08:24 38.7 °F 37.6 °F 30.23 in Calm     96 % 0.00 in 246 W/m2
08:29 39.4 °F 38.3 °F 30.23 in Calm     96 % 0.00 in 258 W/m2
08:34 39.9 °F 38.6 °F 30.23 in Calm     95 % 0.00 in 272 W/m2
08:39 40.6 °F 39.3 °F 30.22 in Calm   1.0 mph 95 % 0.00 in 288 W/m2
08:44 41.4 °F 39.8 °F 30.22 in Calm   1.0 mph 94 % 0.00 in 304 W/m2
08:49 41.9 °F 40.0 °F 30.22 in Calm     93 % 0.00 in 318 W/m2
08:54 42.4 °F 40.3 °F 30.22 in Calm     92 % 0.00 in 334 W/m2
08:59 43.3 °F 40.9 °F 30.22 in Calm   2.0 mph 91 % 0.00 in 348 W/m2
09:04 44.4 °F 41.7 °F 30.22 in Calm   2.0 mph 90 % 0.00 in 369 W/m2
09:09 45.3 °F 42.0 °F 30.22 in Calm   2.0 mph 88 % 0.00 in 381 W/m2
09:14 46.4 °F 42.1 °F 30.22 in ESE 1.0 mph 2.0 mph 85 % 0.00 in 394 W/m2
09:19 47.3 °F 42.7 °F 30.22 in ESE 1.0 mph 2.0 mph 84 % 0.00 in 415 W/m2
09:24 48.0 °F 42.8 °F 30.22 in Calm   2.0 mph 82 % 0.00 in 425 W/m2
09:29 48.7 °F 42.8 °F 30.22 in Calm   2.0 mph 80 % 0.00 in 441 W/m2
09:34 49.6 °F 43.4 °F 30.23 in Calm   2.0 mph 79 % 0.00 in 454 W/m2
09:39 50.5 °F 43.3 °F 30.22 in Calm   4.0 mph 76 % 0.00 in 468 W/m2
09:44 51.3 °F 44.0 °F 30.22 in Calm   4.0 mph 76 % 0.00 in 480 W/m2
09:49 52.0 °F 43.9 °F 30.22 in ESE 1.0 mph 4.0 mph 74 % 0.00 in 494 W/m2
09:54 52.3 °F 43.9 °F 30.22 in ESE 1.0 mph 4.0 mph 73 % 0.00 in 510 W/m2
09:59 52.5 °F 43.8 °F 30.22 in ESE 1.0 mph 4.0 mph 72 % 0.00 in 519 W/m2
10:04 53.1 °F 44.6 °F 30.22 in ESE 1.0 mph 4.0 mph 73 % 0.00 in 531 W/m2
10:09 53.4 °F 44.6 °F 30.22 in ESE 1.0 mph 6.0 mph 72 % 0.00 in 543 W/m2
10:14 53.8 °F 45.3 °F 30.22 in ESE 2.0 mph 6.0 mph 73 % 0.00 in 552 W/m2
10:19 54.1 °F 45.3 °F 30.22 in ESE 1.0 mph 6.0 mph 72 % 0.00 in 559 W/m2
10:24 54.9 °F 45.6 °F 30.22 in ESE 2.0 mph 5.0 mph 71 % 0.00 in 570 W/m2
10:29 55.2 °F 46.0 °F 30.22 in ESE 2.0 mph 5.0 mph 71 % 0.00 in 580 W/m2
10:34 55.8 °F 46.1 °F 30.22 in East 1.0 mph 5.0 mph 70 % 0.00 in 594 W/m2
10:39 56.3 °F 46.6 °F 30.22 in ESE 1.0 mph 7.0 mph 70 % 0.00 in 608 W/m2
10:45 56.7 °F 46.6 °F 30.22 in ESE 2.0 mph 7.0 mph 69 % 0.00 in 619 W/m2
10:50 56.8 °F 46.8 °F 30.21 in East 3.0 mph 6.0 mph 69 % 0.00 in 624 W/m2
10:51 56.8 °F 46.4 °F 30.21 in East 2.0 mph 6.0 mph 68 % 0.00 in 624 W/m2
10:56 57.0 °F 46.9 °F 30.21 in East 2.0 mph 6.0 mph 69 % 0.00 in 636 W/m2
11:01 57.4 °F 46.9 °F 30.21 in ESE 3.0 mph 9.0 mph 68 % 0.00 in 640 W/m2
11:06 57.7 °F 47.6 °F 30.21 in ESE 4.0 mph 9.0 mph 69 % 0.00 in 649 W/m2
11:11 58.3 °F 47.4 °F 30.21 in East 3.0 mph 6.0 mph 67 % 0.00 in 656 W/m2
11:14 58.3 °F 47.4 °F 30.20 in ENE 2.0 mph 6.0 mph 67 % 0.00 in 661 W/m2
11:19 58.3 °F 47.4 °F 30.20 in ENE 3.0 mph 7.0 mph 67 % 0.00 in 647 W/m2
11:20 58.3 °F 47.8 °F 30.20 in ENE 3.0 mph 7.0 mph 68 % 0.00 in 647 W/m2
11:25 58.3 °F 48.2 °F 30.20 in ENE 4.0 mph 7.0 mph 69 % 0.00 in 657 W/m2
11:30 58.8 °F 48.3 °F 30.20 in East 3.0 mph 7.0 mph 68 % 0.00 in 664 W/m2
11:35 59.5 °F 48.2 °F 30.20 in East 2.0 mph 5.0 mph 66 % 0.00 in 679 W/m2
11:40 59.7 °F 48.3 °F 30.19 in NE 3.0 mph 10.0 mph 66 % 0.00 in 693 W/m2
11:45 59.7 °F 48.3 °F 30.19 in NE 3.0 mph 10.0 mph 66 % 0.00 in 680 W/m2
11:46 60.1 °F 49.1 °F 30.19 in NE 3.0 mph 10.0 mph 67 % 0.00 in 689 W/m2
11:51 60.6 °F 48.8 °F 30.19 in East 2.0 mph 6.0 mph 65 % 0.00 in 703 W/m2
11:56 61.0 °F 48.7 °F 30.19 in ENE 3.0 mph 6.0 mph 64 % 0.00 in 694 W/m2
12:01 61.2 °F 48.5 °F 30.19 in ENE 4.0 mph 7.0 mph 63 % 0.00 in 719 W/m2
12:06 61.3 °F 48.6 °F 30.19 in East 3.0 mph 7.0 mph 63 % 0.00 in 731 W/m2
12:11 61.9 °F 49.1 °F 30.18 in ESE 2.0 mph 6.0 mph 63 % 0.00 in 710 W/m2
12:16 62.4 °F 49.7 °F 30.18 in ESE 1.0 mph 5.0 mph 63 % 0.00 in 721 W/m2
12:19 63.0 °F 49.3 °F 30.18 in East 2.0 mph 7.0 mph 61 % 0.00 in 722 W/m2
12:24 63.0 °F 48.4 °F 30.18 in NE 2.0 mph 7.0 mph 59 % 0.00 in 744 W/m2
12:29 63.3 °F 48.7 °F 30.18 in NE 2.0 mph 7.0 mph 59 % 0.00 in 738 W/m2
12:34 63.9 °F 49.2 °F 30.17 in East 2.0 mph 6.0 mph 59 % 0.00 in 749 W/m2
12:40 64.2 °F 48.7 °F 30.17 in SE 2.0 mph 9.0 mph 57 % 0.00 in 758 W/m2
12:45 64.8 °F 48.2 °F 30.17 in SSW 4.0 mph 12.0 mph 55 % 0.00 in 751 W/m2
12:50 65.1 °F 49.0 °F 30.17 in SSW 5.0 mph 12.0 mph 56 % 0.00 in 763 W/m2
12:55 65.7 °F 47.0 °F 30.17 in SSW 6.0 mph 12.0 mph 51 % 0.00 in 773 W/m2
13:00 65.8 °F 45.6 °F 30.17 in SSW 7.0 mph 12.0 mph 48 % 0.00 in 775 W/m2
13:05 65.8 °F 45.0 °F 30.17 in SSW 6.0 mph 11.0 mph 47 % 0.00 in 763 W/m2
13:10 66.0 °F 46.8 °F 30.16 in South 6.0 mph 12.0 mph 50 % 0.00 in 758 W/m2
13:15 66.4 °F 48.2 °F 30.16 in SSW 7.0 mph 12.0 mph 52 % 0.00 in 759 W/m2
13:20 66.6 °F 48.9 °F 30.16 in SW 7.0 mph 11.0 mph 53 % 0.00 in 747 W/m2
13:25 66.6 °F 48.4 °F 30.16 in SSW 7.0 mph 13.0 mph 52 % 0.00 in 763 W/m2
13:30 66.4 °F 47.7 °F 30.16 in South 8.0 mph 14.0 mph 51 % 0.00 in 751 W/m2
13:35 66.6 °F 47.9 °F 30.16 in SSW 8.0 mph 14.0 mph 51 % 0.00 in 756 W/m2
13:40 66.6 °F 46.8 °F 30.16 in SSW 8.0 mph 14.0 mph 49 % 0.00 in 751 W/m2
13:45 66.6 °F 47.3 °F 30.16 in SSW 8.0 mph 14.0 mph 50 % 0.00 in 747 W/m2
13:50 66.6 °F 46.8 °F 30.16 in SSW 8.0 mph 13.0 mph 49 % 0.00 in 738 W/m2
13:55 66.9 °F 46.6 °F 30.15 in South 7.0 mph 12.0 mph 48 % 0.00 in 747 W/m2
14:00 67.3 °F 46.9 °F 30.15 in SSW 8.0 mph 13.0 mph 48 % 0.00 in 751 W/m2
14:06 67.5 °F 45.4 °F 30.15 in SSW 8.0 mph 13.0 mph 45 % 0.00 in 742 W/m2
14:11 67.5 °F 45.4 °F 30.15 in SW 7.0 mph 13.0 mph 45 % 0.00 in 738 W/m2
14:16 67.5 °F 45.9 °F 30.15 in SW 7.0 mph 13.0 mph 46 % 0.00 in 726 W/m2
14:18 67.6 °F 46.1 °F 30.15 in SW 7.0 mph 13.0 mph 46 % 0.00 in 722 W/m2
14:23 67.6 °F 45.5 °F 30.14 in SSW 6.0 mph 12.0 mph 45 % 0.00 in 715 W/m2
14:28 67.6 °F 46.1 °F 30.14 in SSW 7.0 mph 12.0 mph 46 % 0.00 in 705 W/m2
14:33 67.6 °F 46.7 °F 30.14 in SSW 8.0 mph 13.0 mph 47 % 0.00 in 696 W/m2
14:38 67.6 °F 46.7 °F 30.14 in SSW 7.0 mph 13.0 mph 47 % 0.00 in 694 W/m2
14:43 67.8 °F 45.7 °F 30.14 in SSW 7.0 mph 13.0 mph 45 % 0.00 in 691 W/m2
14:48 67.8 °F 43.9 °F 30.14 in SSW 8.0 mph 13.0 mph 42 % 0.00 in 684 W/m2
14:53 67.6 °F 43.1 °F 30.14 in SW 9.0 mph 15.0 mph 41 % 0.00 in 671 W/m2
14:58 68.0 °F 44.7 °F 30.14 in SW 8.0 mph 15.0 mph 43 % 0.00 in 664 W/m2
15:03 68.2 °F 44.8 °F 30.14 in SW 8.0 mph 14.0 mph 43 % 0.00 in 656 W/m2
15:08 68.2 °F 45.4 °F 30.14 in SW 9.0 mph 15.0 mph 44 % 0.00 in 649 W/m2
15:13 67.8 °F 44.5 °F 30.14 in SW 10.0 mph 15.0 mph 43 % 0.00 in 635 W/m2
15:15 67.8 °F 45.1 °F 30.13 in SW 10.0 mph 15.0 mph 44 % 0.00 in 640 W/m2
15:20 68.2 °F 45.4 °F 30.13 in SSW 9.0 mph 15.0 mph 44 % 0.00 in 621 W/m2
15:25 68.0 °F 46.4 °F 30.13 in SSW 8.0 mph 15.0 mph 46 % 0.00 in 615 W/m2
15:30 68.2 °F 46.0 °F 30.13 in SSW 8.0 mph 15.0 mph 45 % 0.00 in 606 W/m2
15:35 68.2 °F 46.0 °F 30.13 in SSW 9.0 mph 16.0 mph 45 % 0.00 in 598 W/m2
15:40 68.2 °F 46.6 °F 30.13 in SSW 8.0 mph 16.0 mph 46 % 0.00 in 578 W/m2
15:45 68.2 °F 46.0 °F 30.13 in SSW 8.0 mph 15.0 mph 45 % 0.00 in 573 W/m2
15:50 68.2 °F 44.8 °F 30.13 in SSW 8.0 mph 14.0 mph 43 % 0.00 in 566 W/m2
15:55 68.4 °F 45.0 °F 30.13 in SSW 8.0 mph 14.0 mph 43 % 0.00 in 554 W/m2
16:00 68.2 °F 44.8 °F 30.13 in SSW 8.0 mph 14.0 mph 43 % 0.00 in 533 W/m2
16:05 68.0 °F 45.3 °F 30.12 in SSW 9.0 mph 18.0 mph 44 % 0.00 in 524 W/m2
16:10 67.8 °F 45.7 °F 30.12 in SSW 9.0 mph 18.0 mph 45 % 0.00 in 506 W/m2
16:15 67.6 °F 44.9 °F 30.12 in SSW 9.0 mph 13.0 mph 44 % 0.00 in 494 W/m2
16:20 67.8 °F 45.7 °F 30.12 in SW 8.0 mph 13.0 mph 45 % 0.00 in 490 W/m2
16:25 68.0 °F 45.9 °F 30.12 in SSW 8.0 mph 16.0 mph 45 % 0.00 in 485 W/m2
16:30 67.8 °F 45.1 °F 30.12 in South 9.0 mph 16.0 mph 44 % 0.00 in 476 W/m2
16:35 67.8 °F 45.7 °F 30.12 in South 9.0 mph 14.0 mph 45 % 0.00 in 457 W/m2
16:40 67.8 °F 45.7 °F 30.12 in SSW 9.0 mph 14.0 mph 45 % 0.00 in 441 W/m2
16:45 67.8 °F 46.3 °F 30.12 in SSW 8.0 mph 12.0 mph 46 % 0.00 in 434 W/m2
16:50 68.2 °F 44.8 °F 30.12 in SSW 8.0 mph 15.0 mph 43 % 0.00 in 417 W/m2
16:51 68.2 °F 45.4 °F 30.12 in SSW 8.0 mph 15.0 mph 44 % 0.00 in 415 W/m2
16:56 68.0 °F 45.9 °F 30.12 in SSW 8.0 mph 15.0 mph 45 % 0.00 in 403 W/m2
17:01 68.2 °F 46.0 °F 30.12 in SSW 7.0 mph 11.0 mph 45 % 0.00 in 381 W/m2
17:06 67.8 °F 46.3 °F 30.12 in SW 7.0 mph 11.0 mph 46 % 0.00 in 362 W/m2
17:11 68.0 °F 46.4 °F 30.11 in SW 7.0 mph 11.0 mph 46 % 0.00 in 352 W/m2
17:16 67.8 °F 46.3 °F 30.11 in SW 7.0 mph 13.0 mph 46 % 0.00 in 334 W/m2
17:21 68.0 °F 45.9 °F 30.11 in SSW 6.0 mph 13.0 mph 45 % 0.00 in 318 W/m2
17:26 67.8 °F 45.7 °F 30.11 in SSW 6.0 mph 11.0 mph 45 % 0.00 in 306 W/m2
17:31 67.6 °F 46.1 °F 30.11 in SSW 7.0 mph 11.0 mph 46 % 0.00 in 281 W/m2
17:36 67.5 °F 45.9 °F 30.11 in SSW 6.0 mph 10.0 mph 46 % 0.00 in 269 W/m2
17:41 67.6 °F 46.7 °F 30.11 in SSW 5.0 mph 10.0 mph 47 % 0.00 in 251 W/m2
17:46 67.6 °F 46.1 °F 30.11 in SSW 6.0 mph 11.0 mph 46 % 0.00 in 244 W/m2
17:51 67.5 °F 46.5 °F 30.11 in SSW 7.0 mph 11.0 mph 47 % 0.00 in 232 W/m2
17:53 67.5 °F 46.5 °F 30.11 in SSW 7.0 mph 11.0 mph 47 % 0.00 in 225 W/m2
17:58 67.5 °F 45.4 °F 30.11 in SSW 6.0 mph 9.0 mph 45 % 0.00 in 214 W/m2
18:03 67.3 °F 45.8 °F 30.11 in SSW 5.0 mph 8.0 mph 46 % 0.00 in 200 W/m2
18:08 67.3 °F 45.2 °F 30.11 in SSW 6.0 mph 10.0 mph 45 % 0.00 in 188 W/m2
18:13 66.9 °F 45.5 °F 30.11 in SSW 6.0 mph 10.0 mph 46 % 0.00 in 176 W/m2
18:18 66.9 °F 44.9 °F 30.11 in SSW 6.0 mph 9.0 mph 45 % 0.00 in 165 W/m2
18:23 66.7 °F 44.7 °F 30.11 in SSW 5.0 mph 9.0 mph 45 % 0.00 in 155 W/m2
18:28 66.7 °F 44.7 °F 30.11 in SW 5.0 mph 9.0 mph 45 % 0.00 in 144 W/m2
18:33 66.6 °F 44.0 °F 30.11 in SW 5.0 mph 9.0 mph 44 % 0.00 in 130 W/m2
18:38 66.6 °F 44.5 °F 30.11 in SW 5.0 mph 9.0 mph 45 % 0.00 in 120 W/m2
18:39 66.4 °F 44.4 °F 30.11 in SW 5.0 mph 9.0 mph 45 % 0.00 in 120 W/m2
18:44 66.4 °F 44.4 °F 30.11 in SW 6.0 mph 9.0 mph 45 % 0.00 in 107 W/m2
18:49 66.0 °F 44.6 °F 30.11 in SW 5.0 mph 8.0 mph 46 % 0.00 in 90 W/m2
18:54 65.8 °F 45.0 °F 30.11 in SSW 4.0 mph 7.0 mph 47 % 0.00 in 83 W/m2
18:59 65.5 °F 44.7 °F 30.11 in SSW 6.0 mph 9.0 mph 47 % 0.00 in 72 W/m2
19:04 65.3 °F 44.5 °F 30.11 in SSW 6.0 mph 9.0 mph 47 % 0.00 in 62 W/m2
19:09 65.1 °F 44.9 °F 30.11 in SSW 5.0 mph 8.0 mph 48 % 0.00 in 53 W/m2
19:14 64.9 °F 44.8 °F 30.11 in SSW 5.0 mph 9.0 mph 48 % 0.00 in 44 W/m2
19:17 64.8 °F 44.6 °F 30.11 in SSW 5.0 mph 9.0 mph 48 % 0.00 in 40 W/m2
19:22 64.6 °F 45.0 °F 30.11 in SSW 5.0 mph 9.0 mph 49 % 0.00 in 33 W/m2
19:27 64.2 °F 44.6 °F 30.11 in SSW 5.0 mph 9.0 mph 49 % 0.00 in 25 W/m2
19:32 64.0 °F 44.5 °F 30.11 in SSW 3.0 mph 7.0 mph 49 % 0.00 in 19 W/m2
19:37 63.9 °F 44.3 °F 30.11 in SSW 2.0 mph 6.0 mph 49 % 0.00 in 16 W/m2
19:42 63.7 °F 44.7 °F 30.11 in SSW 1.0 mph 4.0 mph 50 % 0.00 in 12 W/m2
19:47 63.3 °F 43.8 °F 30.11 in SSW 1.0 mph 4.0 mph 49 % 0.00 in 9 W/m2
19:52 62.8 °F 43.9 °F 30.11 in South 2.0 mph 5.0 mph 50 % 0.00 in 7 W/m2
19:57 62.4 °F 43.5 °F 30.11 in South 2.0 mph 5.0 mph 50 % 0.00 in 0 W/m2
20:02 62.1 °F 43.7 °F 30.11 in South 1.0 mph 5.0 mph 51 % 0.00 in 0 W/m2
20:07 61.5 °F 43.7 °F 30.11 in Calm   1.0 mph 52 % 0.00 in 0 W/m2
20:12 61.0 °F 43.7 °F 30.11 in Calm   1.0 mph 53 % 0.00 in 0 W/m2
20:17 60.4 °F 43.7 °F 30.12 in Calm   1.0 mph 54 % 0.00 in 0 W/m2
20:22 59.9 °F 43.7 °F 30.12 in Calm   3.0 mph 55 % 0.00 in 0 W/m2
20:27 59.4 °F 44.1 °F 30.12 in Calm   3.0 mph 57 % 0.00 in 0 W/m2
20:32 58.8 °F 44.1 °F 30.12 in Calm   2.0 mph 58 % 0.00 in 0 W/m2
20:37 58.3 °F 43.6 °F 30.12 in South 1.0 mph 4.0 mph 58 % 0.00 in 0 W/m2
20:42 57.9 °F 43.7 °F 30.12 in South 1.0 mph 4.0 mph 59 % 0.00 in 0 W/m2
20:47 57.6 °F 43.8 °F 30.12 in Calm     60 % 0.00 in 0 W/m2
20:52 57.0 °F 43.3 °F 30.12 in Calm     60 % 0.00 in 0 W/m2
20:57 56.7 °F 43.8 °F 30.12 in Calm     62 % 0.00 in 0 W/m2
21:02 56.5 °F 44.0 °F 30.12 in Calm     63 % 0.00 in 0 W/m2
21:07 55.9 °F 43.9 °F 30.12 in Calm   1.0 mph 64 % 0.00 in 0 W/m2
21:12 55.6 °F 43.6 °F 30.12 in Calm   1.0 mph 64 % 0.00 in 0 W/m2
21:17 55.2 °F 44.1 °F 30.12 in Calm   1.0 mph 66 % 0.00 in 0 W/m2
21:22 54.9 °F 43.7 °F 30.12 in Calm   2.0 mph 66 % 0.00 in 0 W/m2
21:27 54.3 °F 43.2 °F 30.12 in Calm   2.0 mph 66 % 0.00 in 0 W/m2
21:32 54.1 °F 43.4 °F 30.12 in Calm   1.0 mph 67 % 0.00 in 0 W/m2
21:37 53.8 °F 43.5 °F 30.12 in Calm   2.0 mph 68 % 0.00 in 0 W/m2
21:42 53.4 °F 43.1 °F 30.12 in South 1.0 mph 3.0 mph 68 % 0.00 in 0 W/m2
21:47 53.2 °F 43.3 °F 30.12 in SSW 1.0 mph 5.0 mph 69 % 0.00 in 0 W/m2
21:52 53.1 °F 43.2 °F 30.12 in SW 1.0 mph 5.0 mph 69 % 0.00 in 0 W/m2
21:57 52.9 °F 43.0 °F 30.12 in Calm   4.0 mph 69 % 0.00 in 0 W/m2
22:03 52.7 °F 42.8 °F 30.12 in Calm   5.0 mph 69 % 0.00 in 0 W/m2
22:08 52.7 °F 42.8 °F 30.12 in SSW 1.0 mph 6.0 mph 69 % 0.00 in 0 W/m2
22:13 52.7 °F 42.8 °F 30.12 in SSW 1.0 mph 6.0 mph 69 % 0.00 in 0 W/m2
22:18 52.5 °F 43.0 °F 30.12 in SW 1.0 mph 5.0 mph 70 % 0.00 in 0 W/m2
22:23 52.2 °F 42.7 °F 30.11 in Calm   2.0 mph 70 % 0.00 in 0 W/m2
22:28 52.0 °F 42.5 °F 30.11 in Calm   1.0 mph 70 % 0.00 in 0 W/m2
22:33 51.6 °F 42.5 °F 30.11 in Calm   2.0 mph 71 % 0.00 in 0 W/m2
22:38 51.3 °F 42.5 °F 30.11 in Calm   2.0 mph 72 % 0.00 in 0 W/m2
22:43 51.1 °F 42.7 °F 30.11 in Calm   2.0 mph 73 % 0.00 in 0 W/m2
22:48 50.9 °F 42.6 °F 30.11 in Calm   3.0 mph 73 % 0.00 in 0 W/m2
22:53 50.7 °F 42.4 °F 30.11 in Calm   3.0 mph 73 % 0.00 in 0 W/m2
22:58 50.5 °F 42.6 °F 30.11 in Calm   3.0 mph 74 % 0.00 in 0 W/m2
23:03 50.2 °F 42.2 °F 30.11 in Calm   3.0 mph 74 % 0.00 in 0 W/m2
23:08 49.8 °F 42.2 °F 30.11 in Calm     75 % 0.00 in 0 W/m2
23:09 49.6 °F 42.0 °F 30.11 in Calm     75 % 0.00 in 0 W/m2
23:14 49.5 °F 42.2 °F 30.11 in Calm     76 % 0.00 in 0 W/m2
23:19 49.3 °F 42.0 °F 30.11 in Calm     76 % 0.00 in 0 W/m2
23:24 49.1 °F 42.2 °F 30.11 in Calm     77 % 0.00 in 0 W/m2
23:29 48.9 °F 42.0 °F 30.11 in Calm     77 % 0.00 in 0 W/m2
23:34 48.7 °F 41.8 °F 30.11 in Calm   1.0 mph 77 % 0.00 in 0 W/m2
23:39 48.6 °F 42.0 °F 30.11 in Calm   1.0 mph 78 % 0.00 in 0 W/m2
23:44 48.4 °F 41.8 °F 30.11 in SW 1.0 mph 4.0 mph 78 % 0.00 in 0 W/m2
23:49 48.2 °F 42.0 °F 30.11 in SW 1.0 mph 4.0 mph 79 % 0.00 in 0 W/m2
23:54 48.0 °F 41.8 °F 30.11 in Calm     79 % 0.00 in 0 W/m2
23:59 47.8 °F 41.6 °F 30.11 in Calm   2.0 mph 79 % 0.00 in 0 W/m2
Delerius-Weather
Compliments of Weather Underground - 2.25 mb

Data updates at regular intervals.